Taouey — ZCAY9 — position and weather

sailwx.info

Track history (hours):
 
Tides and Currents Weather Stations Pressure Air Temp Water Temp Dewpoint Dewpoint Depression Visibility Wind Speed Wind Dir Waves Ship Positions

Taouey

Last reported at 2016-Jul-28 18:04 UTC. Time now 2016-Jul-29 00:13 UTC.
Position N 38°54' E 001°27'.

Length 58 m; draft 4 m.

MMSI: 310079000.

Date/timePositionNaut miles runAvg speedWind from/ knotsBaromVisibWave heightAir tempDewpointWater temp
2016-Jul-28 18:04N 38°54' E 001°27'611.6
2016-Jul-28 17:33N 38°49' E 001°25'4 3.6
2016-Jul-28 16:32N 38°45' E 001°25'8 1.8
2016-Jul-28 12:11N 38°50' E 001°18'6 9.9
2016-Jul-28 11:33N 38°50' E 001°26'4 0.2
2016-Jul-27 17:32N 38°53' E 001°27'9 8.3
2016-Jul-27 16:30N 38°45' E 001°26'0 0.0
2016-Jul-27 15:33N 38°45' E 001°26'0 0.0
2016-Jul-27 14:31N 38°45' E 001°26'0 0.0
2016-Jul-27 13:31N 38°45' E 001°26'0 0.0
2016-Jul-27 12:08N 38°45' E 001°26'0 0.0
2016-Jul-27 11:31N 38°45' E 001°26'6 6.5
2016-Jul-27 10:33N 38°51' E 001°26'0 0.0
2016-Jul-26 17:33N 38°52' E 001°26'7 1.0
2016-Jul-26 10:20N 38°50' E 001°17'7 9.1
2016-Jul-26 09:32N 38°52' E 001°26'2 0.0
2016-Jul-24 17:08N 38°54' E 001°27'8 1.2
2016-Jul-24 10:18N 38°50' E 001°17'7 9.5
2016-Jul-24 09:32N 38°51' E 001°26'3 0.2
2016-Jul-23 18:12N 38°55' E 001°27'0 0.0
2016-Jul-23 17:19N 38°55' E 001°27'2 0.1
2016-Jul-22 18:05N 38°53' E 001°26'612.0
2016-Jul-22 17:33N 38°47' E 001°24'4 1.3
2016-Jul-22 14:12N 38°42' E 001°22'3 4.3
2016-Jul-22 13:24N 38°45' E 001°26'0 0.0
2016-Jul-22 12:27N 38°45' E 001°26'0 0.1
2016-Jul-22 11:30N 38°45' E 001°26'1 1.0
2016-Jul-22 10:33N 38°45' E 001°25'8 0.2
2016-Jul-20 16:33N 38°53' E 001°27'9 9.0
2016-Jul-20 15:33N 38°51' E 001°16'4 3.4
2016-Jul-20 14:31N 38°53' E 001°13'0 0.0
2016-Jul-20 13:33N 38°53' E 001°13'0 0.0
2016-Jul-20 12:33N 38°53' E 001°13'0 0.0
2016-Jul-20 11:32N 38°53' E 001°13'0 0.0
2016-Jul-20 10:33N 38°53' E 001°13'0 0.0
2016-Jul-20 09:27N 38°53' E 001°13'3 3.1
2016-Jul-20 08:33N 38°51' E 001°15'1211.9
2016-Jul-20 07:33N 38°50' E 001°30'1312.7
2016-Jul-20 06:34N 38°52' E 001°46'1312.6
2016-Jul-20 05:33N 38°55' E 002°02'1312.8
2016-Jul-20 04:32N 38°58' E 002°18'1212.8
2016-Jul-20 03:33N 39°01' E 002°34'1312.8
2016-Jul-20 02:33N 39°03' E 002°50'1212.3
2016-Jul-20 01:34N 39°08' E 003°05'1312.6
2016-Jul-20 00:33N 39°15' E 003°18'1312.3
2016-Jul-19 23:31N 39°22' E 003°32'1212.2
2016-Jul-19 22:33N 39°29' E 003°44'1212.1
2016-Jul-19 21:33N 39°36' E 003°57'1212.2
2016-Jul-19 20:33N 39°43' E 004°10'174 6.9
2016-Jul-18 19:25N 42°15' E 006°03'1112.6
2016-Jul-18 18:33N 42°25' E 006°10'  
Track history (hours):
 
Tides and Currents Weather Stations Pressure Air Temp Water Temp Dewpoint Dewpoint Depression Visibility Wind Speed Wind Dir Waves Ship Positions

Taouey

Last reported at 2016-Jul-28 18:04 UTC. Time now 2016-Jul-29 00:13 UTC.
Position N 38°54' E 001°27'.

Length 58 m; draft 4 m.

MMSI: 310079000.

Date/timePositionNaut miles runAvg speedWind from/ knotsBaromVisibWave heightAir tempDewpointWater temp
2016-Jul-28 18:04N 38°54' E 001°27'611.6
2016-Jul-28 17:33N 38°49' E 001°25'4 3.6
2016-Jul-28 16:32N 38°45' E 001°25'8 1.8
2016-Jul-28 12:11N 38°50' E 001°18'6 9.9
2016-Jul-28 11:33N 38°50' E 001°26'4 0.2
2016-Jul-27 17:32N 38°53' E 001°27'9 8.3
2016-Jul-27 16:30N 38°45' E 001°26'0 0.0
2016-Jul-27 15:33N 38°45' E 001°26'0 0.0
2016-Jul-27 14:31N 38°45' E 001°26'0 0.0
2016-Jul-27 13:31N 38°45' E 001°26'0 0.0
2016-Jul-27 12:08N 38°45' E 001°26'0 0.0
2016-Jul-27 11:31N 38°45' E 001°26'6 6.5
2016-Jul-27 10:33N 38°51' E 001°26'0 0.0
2016-Jul-26 17:33N 38°52' E 001°26'7 1.0
2016-Jul-26 10:20N 38°50' E 001°17'7 9.1
2016-Jul-26 09:32N 38°52' E 001°26'2 0.0
2016-Jul-24 17:08N 38°54' E 001°27'8 1.2
2016-Jul-24 10:18N 38°50' E 001°17'7 9.5
2016-Jul-24 09:32N 38°51' E 001°26'3 0.2
2016-Jul-23 18:12N 38°55' E 001°27'0 0.0
2016-Jul-23 17:19N 38°55' E 001°27'2 0.1
2016-Jul-22 18:05N 38°53' E 001°26'612.0
2016-Jul-22 17:33N 38°47' E 001°24'4 1.3
2016-Jul-22 14:12N 38°42' E 001°22'3 4.3
2016-Jul-22 13:24N 38°45' E 001°26'0 0.0
2016-Jul-22 12:27N 38°45' E 001°26'0 0.1
2016-Jul-22 11:30N 38°45' E 001°26'1 1.0
2016-Jul-22 10:33N 38°45' E 001°25'8 0.2
2016-Jul-20 16:33N 38°53' E 001°27'9 9.0
2016-Jul-20 15:33N 38°51' E 001°16'4 3.4
2016-Jul-20 14:31N 38°53' E 001°13'0 0.0
2016-Jul-20 13:33N 38°53' E 001°13'0 0.0
2016-Jul-20 12:33N 38°53' E 001°13'0 0.0
2016-Jul-20 11:32N 38°53' E 001°13'0 0.0
2016-Jul-20 10:33N 38°53' E 001°13'0 0.0
2016-Jul-20 09:27N 38°53' E 001°13'3 3.1
2016-Jul-20 08:33N 38°51' E 001°15'1211.9
2016-Jul-20 07:33N 38°50' E 001°30'1312.7
2016-Jul-20 06:34N 38°52' E 001°46'1312.6
2016-Jul-20 05:33N 38°55' E 002°02'1312.8
2016-Jul-20 04:32N 38°58' E 002°18'1212.8
2016-Jul-20 03:33N 39°01' E 002°34'1312.8
2016-Jul-20 02:33N 39°03' E 002°50'1212.3
2016-Jul-20 01:34N 39°08' E 003°05'1312.6
2016-Jul-20 00:33N 39°15' E 003°18'1312.3
2016-Jul-19 23:31N 39°22' E 003°32'1212.2
2016-Jul-19 22:33N 39°29' E 003°44'1212.1
2016-Jul-19 21:33N 39°36' E 003°57'1212.2
2016-Jul-19 20:33N 39°43' E 004°10'174 6.9
2016-Jul-18 19:25N 42°15' E 006°03'1112.6
2016-Jul-18 18:33N 42°25' E 006°10'  

Dump ship's entire track history